Terminal Aerodrome Forecast
Issued by NWS Newport/Morehead City, NC

Home | Current Version | Previous Version | Text Only | Print | Product List | Glossary Off
Versions: 1 2 3 4 5 6 7 8 9 10 11 12 13 14

000
FTUS42 KMHX 071726
TAFEWN
TAF
KEWN 071726Z 0718/0818 01020G30KT 3SM RA SCT009 OVC015
      TEMPO 0720/0723 5SM BKN009
     FM080100 35015G25KT 6SM -RA SCT015 BKN035
     FM080600 33012G20KT P6SM SCT070
     FM081200 30005KT P6SM SKC=

USA.gov is the U.S. government's official web portal to all federal, state and local government web resources and services.